sensor_id;sensor_type;location;lat;lon;timestamp;temperature;humidity
35607;DHT22;21729;58.392;15.656;2023-06-10T00:02:03;5.40;99.90
35607;DHT22;21729;58.392;15.656;2023-06-10T00:04:31;5.40;83.90
35607;DHT22;21729;58.392;15.656;2023-06-10T00:06:58;5.30;89.80
35607;DHT22;21729;58.392;15.656;2023-06-10T00:09:26;5.40;99.90
35607;DHT22;21729;58.392;15.656;2023-06-10T00:11:54;5.30;99.90
35607;DHT22;21729;58.392;15.656;2023-06-10T00:14:25;5.20;99.90
35607;DHT22;21729;58.392;15.656;2023-06-10T00:16:53;5.20;99.90
35607;DHT22;21729;58.392;15.656;2023-06-10T00:19:21;5.20;99.90
35607;DHT22;21729;58.392;15.656;2023-06-10T00:21:51;5.20;99.90
35607;DHT22;21729;58.392;15.656;2023-06-10T00:24:19;5.10;99.90
35607;DHT22;21729;58.392;15.656;2023-06-10T00:26:46;5.10;99.90
35607;DHT22;21729;58.392;15.656;2023-06-10T00:29:13;5.00;99.90
35607;DHT22;21729;58.392;15.656;2023-06-10T00:31:40;5.00;99.90
35607;DHT22;21729;58.392;15.656;2023-06-10T00:34:09;4.90;99.90
35607;DHT22;21729;58.392;15.656;2023-06-10T00:36:36;4.90;99.90
35607;DHT22;21729;58.392;15.656;2023-06-10T00:39:03;4.80;99.90
35607;DHT22;21729;58.392;15.656;2023-06-10T00:41:31;4.80;99.90
35607;DHT22;21729;58.392;15.656;2023-06-10T00:43:59;4.80;99.90
35607;DHT22;21729;58.392;15.656;2023-06-10T00:46:27;4.70;99.90
35607;DHT22;21729;58.392;15.656;2023-06-10T00:48:54;4.70;99.90
35607;DHT22;21729;58.392;15.656;2023-06-10T00:51:22;4.60;99.90
35607;DHT22;21729;58.392;15.656;2023-06-10T00:53:51;4.50;99.90
35607;DHT22;21729;58.392;15.656;2023-06-10T00:56:19;4.50;99.90
35607;DHT22;21729;58.392;15.656;2023-06-10T00:58:47;4.40;99.90
35607;DHT22;21729;58.392;15.656;2023-06-10T01:01:14;4.30;99.90
35607;DHT22;21729;58.392;15.656;2023-06-10T01:03:42;4.30;99.90
35607;DHT22;21729;58.392;15.656;2023-06-10T01:06:17;4.30;99.90
35607;DHT22;21729;58.392;15.656;2023-06-10T01:08:52;4.30;99.90
35607;DHT22;21729;58.392;15.656;2023-06-10T01:11:24;4.20;99.90
35607;DHT22;21729;58.392;15.656;2023-06-10T01:13:53;4.30;99.90
35607;DHT22;21729;58.392;15.656;2023-06-10T01:16:22;4.30;99.90
35607;DHT22;21729;58.392;15.656;2023-06-10T01:18:51;4.30;99.90
35607;DHT22;21729;58.392;15.656;2023-06-10T01:21:22;4.20;99.90
35607;DHT22;21729;58.392;15.656;2023-06-10T01:23:51;4.30;99.90
35607;DHT22;21729;58.392;15.656;2023-06-10T01:26:22;4.20;99.90
35607;DHT22;21729;58.392;15.656;2023-06-10T01:28:57;4.20;99.90
35607;DHT22;21729;58.392;15.656;2023-06-10T01:31:38;4.10;99.90
35607;DHT22;21729;58.392;15.656;2023-06-10T01:34:10;4.10;99.90
35607;DHT22;21729;58.392;15.656;2023-06-10T01:36:40;4.00;99.90
35607;DHT22;21729;58.392;15.656;2023-06-10T01:39:08;4.10;99.90
35607;DHT22;21729;58.392;15.656;2023-06-10T01:41:36;4.10;99.90
35607;DHT22;21729;58.392;15.656;2023-06-10T01:44:04;4.00;99.90
35607;DHT22;21729;58.392;15.656;2023-06-10T01:46:31;4.10;99.90
35607;DHT22;21729;58.392;15.656;2023-06-10T01:48:58;4.10;99.90
35607;DHT22;21729;58.392;15.656;2023-06-10T01:51:26;4.00;99.90
35607;DHT22;21729;58.392;15.656;2023-06-10T01:53:54;3.90;99.90
35607;DHT22;21729;58.392;15.656;2023-06-10T01:56:21;4.00;99.90
35607;DHT22;21729;58.392;15.656;2023-06-10T01:58:48;3.90;99.90
35607;DHT22;21729;58.392;15.656;2023-06-10T02:01:15;3.90;99.90
35607;DHT22;21729;58.392;15.656;2023-06-10T02:03:42;4.00;99.90
35607;DHT22;21729;58.392;15.656;2023-06-10T02:06:10;3.90;99.90
35607;DHT22;21729;58.392;15.656;2023-06-10T02:08:37;3.80;99.90
35607;DHT22;21729;58.392;15.656;2023-06-10T02:11:05;3.90;99.90
35607;DHT22;21729;58.392;15.656;2023-06-10T02:13:32;3.90;99.90
35607;DHT22;21729;58.392;15.656;2023-06-10T02:16:00;3.90;99.90
35607;DHT22;21729;58.392;15.656;2023-06-10T02:18:28;3.90;99.90
35607;DHT22;21729;58.392;15.656;2023-06-10T02:20:55;3.90;99.90
35607;DHT22;21729;58.392;15.656;2023-06-10T02:23:22;4.00;99.90
35607;DHT22;21729;58.392;15.656;2023-06-10T02:25:49;3.90;99.90
35607;DHT22;21729;58.392;15.656;2023-06-10T02:28:17;3.90;99.90
35607;DHT22;21729;58.392;15.656;2023-06-10T02:30:45;3.80;99.90
35607;DHT22;21729;58.392;15.656;2023-06-10T02:33:12;3.90;99.90
35607;DHT22;21729;58.392;15.656;2023-06-10T02:35:39;3.90;99.90
35607;DHT22;21729;58.392;15.656;2023-06-10T02:38:06;3.90;99.90
35607;DHT22;21729;58.392;15.656;2023-06-10T02:40:34;3.90;99.90
35607;DHT22;21729;58.392;15.656;2023-06-10T02:43:01;3.90;99.90
35607;DHT22;21729;58.392;15.656;2023-06-10T02:45:29;4.00;99.90
35607;DHT22;21729;58.392;15.656;2023-06-10T02:47:56;4.00;99.90
35607;DHT22;21729;58.392;15.656;2023-06-10T02:50:24;4.00;99.90
35607;DHT22;21729;58.392;15.656;2023-06-10T02:52:51;4.00;99.90
35607;DHT22;21729;58.392;15.656;2023-06-10T02:55:18;4.00;99.90
35607;DHT22;21729;58.392;15.656;2023-06-10T02:57:45;4.10;99.90
35607;DHT22;21729;58.392;15.656;2023-06-10T03:00:13;4.10;99.90
35607;DHT22;21729;58.392;15.656;2023-06-10T03:02:42;4.10;99.90
35607;DHT22;21729;58.392;15.656;2023-06-10T03:05:11;4.20;99.90
35607;DHT22;21729;58.392;15.656;2023-06-10T03:07:39;4.20;99.90
35607;DHT22;21729;58.392;15.656;2023-06-10T03:10:07;4.30;99.90
35607;DHT22;21729;58.392;15.656;2023-06-10T03:12:34;4.30;99.90
35607;DHT22;21729;58.392;15.656;2023-06-10T03:15:01;4.40;99.90
35607;DHT22;21729;58.392;15.656;2023-06-10T03:17:29;4.40;99.90
35607;DHT22;21729;58.392;15.656;2023-06-10T03:19:58;4.40;99.90
35607;DHT22;21729;58.392;15.656;2023-06-10T03:22:26;4.40;99.90
35607;DHT22;21729;58.392;15.656;2023-06-10T03:24:53;4.50;99.90
35607;DHT22;21729;58.392;15.656;2023-06-10T03:27:20;4.50;99.90
35607;DHT22;21729;58.392;15.656;2023-06-10T03:29:47;4.60;99.90
35607;DHT22;21729;58.392;15.656;2023-06-10T03:32:15;4.70;99.90
35607;DHT22;21729;58.392;15.656;2023-06-10T03:34:42;4.80;99.90
35607;DHT22;21729;58.392;15.656;2023-06-10T03:37:12;5.00;99.90
35607;DHT22;21729;58.392;15.656;2023-06-10T03:39:39;5.10;99.90
35607;DHT22;21729;58.392;15.656;2023-06-10T03:42:06;5.10;99.90
35607;DHT22;21729;58.392;15.656;2023-06-10T03:44:33;5.30;99.90
35607;DHT22;21729;58.392;15.656;2023-06-10T03:47:00;5.30;99.90
35607;DHT22;21729;58.392;15.656;2023-06-10T03:49:28;5.50;99.90
35607;DHT22;21729;58.392;15.656;2023-06-10T03:51:56;5.70;99.90
35607;DHT22;21729;58.392;15.656;2023-06-10T03:54:24;5.90;99.90
35607;DHT22;21729;58.392;15.656;2023-06-10T03:56:51;6.00;99.90
35607;DHT22;21729;58.392;15.656;2023-06-10T03:59:18;6.00;99.90
35607;DHT22;21729;58.392;15.656;2023-06-10T04:01:45;6.20;99.90
35607;DHT22;21729;58.392;15.656;2023-06-10T04:04:14;6.40;99.90
35607;DHT22;21729;58.392;15.656;2023-06-10T04:06:42;6.40;99.90
35607;DHT22;21729;58.392;15.656;2023-06-10T04:09:10;6.50;99.90
35607;DHT22;21729;58.392;15.656;2023-06-10T04:11:39;6.60;99.90
35607;DHT22;21729;58.392;15.656;2023-06-10T04:14:06;6.60;99.90
35607;DHT22;21729;58.392;15.656;2023-06-10T04:16:33;6.80;99.90
35607;DHT22;21729;58.392;15.656;2023-06-10T04:19:01;6.80;99.90
35607;DHT22;21729;58.392;15.656;2023-06-10T04:21:28;6.90;99.90
35607;DHT22;21729;58.392;15.656;2023-06-10T04:23:55;7.00;99.90
35607;DHT22;21729;58.392;15.656;2023-06-10T04:26:22;7.10;99.90
35607;DHT22;21729;58.392;15.656;2023-06-10T04:28:52;7.30;99.90
35607;DHT22;21729;58.392;15.656;2023-06-10T04:31:20;7.40;99.90
35607;DHT22;21729;58.392;15.656;2023-06-10T04:33:47;7.50;99.90
35607;DHT22;21729;58.392;15.656;2023-06-10T04:36:14;7.60;99.90
35607;DHT22;21729;58.392;15.656;2023-06-10T04:38:41;7.80;99.90
35607;DHT22;21729;58.392;15.656;2023-06-10T04:41:08;8.00;99.90
35607;DHT22;21729;58.392;15.656;2023-06-10T04:43:36;8.00;99.90
35607;DHT22;21729;58.392;15.656;2023-06-10T04:46:04;8.30;99.90
35607;DHT22;21729;58.392;15.656;2023-06-10T04:48:32;8.40;99.90
35607;DHT22;21729;58.392;15.656;2023-06-10T04:51:01;8.60;99.90
35607;DHT22;21729;58.392;15.656;2023-06-10T04:53:28;8.70;99.90
35607;DHT22;21729;58.392;15.656;2023-06-10T04:55:56;8.90;99.90
35607;DHT22;21729;58.392;15.656;2023-06-10T04:58:23;9.00;87.90
35607;DHT22;21729;58.392;15.656;2023-06-10T05:00:50;9.30;94.10
35607;DHT22;21729;58.392;15.656;2023-06-10T05:03:18;9.50;94.70
35607;DHT22;21729;58.392;15.656;2023-06-10T05:05:45;9.70;31.80
35607;DHT22;21729;58.392;15.656;2023-06-10T05:08:12;9.90;39.90
35607;DHT22;21729;58.392;15.656;2023-06-10T05:10:40;10.10;4.80
35607;DHT22;21729;58.392;15.656;2023-06-10T05:13:07;10.30;1.00
35607;DHT22;21729;58.392;15.656;2023-06-10T05:15:34;10.40;7.00
35607;DHT22;21729;58.392;15.656;2023-06-10T05:18:01;10.80;4.70
35607;DHT22;21729;58.392;15.656;2023-06-10T05:20:30;11.50;1.00
35607;DHT22;21729;58.392;15.656;2023-06-10T05:22:57;12.70;1.00
35607;DHT22;21729;58.392;15.656;2023-06-10T05:25:26;15.90;99.90
35607;DHT22;21729;58.392;15.656;2023-06-10T05:27:53;17.50;8.30
35607;DHT22;21729;58.392;15.656;2023-06-10T05:30:20;18.60;1.00
35607;DHT22;21729;58.392;15.656;2023-06-10T05:32:50;19.20;1.00
35607;DHT22;21729;58.392;15.656;2023-06-10T05:35:17;19.90;99.90
35607;DHT22;21729;58.392;15.656;2023-06-10T05:37:46;20.10;99.90
35607;DHT22;21729;58.392;15.656;2023-06-10T05:40:13;19.60;99.90
35607;DHT22;21729;58.392;15.656;2023-06-10T05:42:40;20.40;99.90
35607;DHT22;21729;58.392;15.656;2023-06-10T05:45:08;20.70;99.90
35607;DHT22;21729;58.392;15.656;2023-06-10T05:47:36;21.80;99.90
35607;DHT22;21729;58.392;15.656;2023-06-10T05:50:04;21.60;99.90
35607;DHT22;21729;58.392;15.656;2023-06-10T05:52:32;21.70;99.90
35607;DHT22;21729;58.392;15.656;2023-06-10T05:55:01;21.70;99.90
35607;DHT22;21729;58.392;15.656;2023-06-10T05:57:28;22.00;99.90
35607;DHT22;21729;58.392;15.656;2023-06-10T05:59:56;23.00;99.90
35607;DHT22;21729;58.392;15.656;2023-06-10T06:02:23;22.70;99.90
35607;DHT22;21729;58.392;15.656;2023-06-10T06:04:50;22.90;99.90
35607;DHT22;21729;58.392;15.656;2023-06-10T06:07:17;22.70;99.90
35607;DHT22;21729;58.392;15.656;2023-06-10T06:09:46;22.60;99.90
35607;DHT22;21729;58.392;15.656;2023-06-10T06:12:14;23.80;99.90
35607;DHT22;21729;58.392;15.656;2023-06-10T06:14:41;23.70;99.90
35607;DHT22;21729;58.392;15.656;2023-06-10T06:17:10;23.10;99.90
35607;DHT22;21729;58.392;15.656;2023-06-10T06:19:37;23.10;99.90
35607;DHT22;21729;58.392;15.656;2023-06-10T06:22:04;23.70;99.90
35607;DHT22;21729;58.392;15.656;2023-06-10T06:24:32;23.10;99.90
35607;DHT22;21729;58.392;15.656;2023-06-10T06:26:59;23.70;99.90
35607;DHT22;21729;58.392;15.656;2023-06-10T06:29:27;24.20;99.90
35607;DHT22;21729;58.392;15.656;2023-06-10T06:31:55;24.40;99.90
35607;DHT22;21729;58.392;15.656;2023-06-10T06:34:22;22.70;99.90
35607;DHT22;21729;58.392;15.656;2023-06-10T06:36:49;24.30;99.90
35607;DHT22;21729;58.392;15.656;2023-06-10T06:39:17;23.30;99.90
35607;DHT22;21729;58.392;15.656;2023-06-10T06:41:44;23.50;99.90
35607;DHT22;21729;58.392;15.656;2023-06-10T06:44:11;24.00;99.90
35607;DHT22;21729;58.392;15.656;2023-06-10T06:46:39;23.30;99.90
35607;DHT22;21729;58.392;15.656;2023-06-10T06:49:06;24.20;99.90
35607;DHT22;21729;58.392;15.656;2023-06-10T06:51:33;23.60;99.90
35607;DHT22;21729;58.392;15.656;2023-06-10T06:54:01;24.10;99.90
35607;DHT22;21729;58.392;15.656;2023-06-10T06:56:28;24.40;99.90
35607;DHT22;21729;58.392;15.656;2023-06-10T06:58:55;24.50;99.90
35607;DHT22;21729;58.392;15.656;2023-06-10T07:01:22;24.90;49.60
35607;DHT22;21729;58.392;15.656;2023-06-10T07:03:51;25.00;73.70
35607;DHT22;21729;58.392;15.656;2023-06-10T07:06:18;24.90;96.60
35607;DHT22;21729;58.392;15.656;2023-06-10T07:08:45;25.30;96.20
35607;DHT22;21729;58.392;15.656;2023-06-10T07:11:12;25.40;54.10
35607;DHT22;21729;58.392;15.656;2023-06-10T07:13:41;25.80;74.90
35607;DHT22;21729;58.392;15.656;2023-06-10T07:16:08;26.20;46.30
35607;DHT22;21729;58.392;15.656;2023-06-10T07:18:36;26.70;32.70
35607;DHT22;21729;58.392;15.656;2023-06-10T07:21:05;26.60;21.70
35607;DHT22;21729;58.392;15.656;2023-06-10T07:23:32;25.90;65.70
35607;DHT22;21729;58.392;15.656;2023-06-10T07:25:59;26.10;47.20
35607;DHT22;21729;58.392;15.656;2023-06-10T07:28:26;26.10;33.00
35607;DHT22;21729;58.392;15.656;2023-06-10T07:30:54;26.00;46.90
35607;DHT22;21729;58.392;15.656;2023-06-10T07:33:21;27.30;34.30
35607;DHT22;21729;58.392;15.656;2023-06-10T07:35:48;27.60;8.60
35607;DHT22;21729;58.392;15.656;2023-06-10T07:38:17;26.70;24.90
35607;DHT22;21729;58.392;15.656;2023-06-10T07:40:45;27.10;1.00
35607;DHT22;21729;58.392;15.656;2023-06-10T07:43:12;27.40;1.00
35607;DHT22;21729;58.392;15.656;2023-06-10T07:45:39;27.20;1.00
35607;DHT22;21729;58.392;15.656;2023-06-10T07:48:07;26.90;8.60
35607;DHT22;21729;58.392;15.656;2023-06-10T07:50:34;26.30;2.20
35607;DHT22;21729;58.392;15.656;2023-06-10T07:53:01;26.90;1.00
35607;DHT22;21729;58.392;15.656;2023-06-10T07:55:30;26.50;4.30
35607;DHT22;21729;58.392;15.656;2023-06-10T07:57:57;27.20;1.00
35607;DHT22;21729;58.392;15.656;2023-06-10T08:00:24;27.70;1.00
35607;DHT22;21729;58.392;15.656;2023-06-10T08:02:51;27.10;1.00
35607;DHT22;21729;58.392;15.656;2023-06-10T08:05:18;27.50;1.00
35607;DHT22;21729;58.392;15.656;2023-06-10T08:07:46;26.90;4.20
35607;DHT22;21729;58.392;15.656;2023-06-10T08:10:13;27.30;1.00
35607;DHT22;21729;58.392;15.656;2023-06-10T08:12:41;26.60;1.00
35607;DHT22;21729;58.392;15.656;2023-06-10T08:15:09;26.80;5.50
35607;DHT22;21729;58.392;15.656;2023-06-10T08:17:37;26.70;1.00
35607;DHT22;21729;58.392;15.656;2023-06-10T08:20:06;27.50;2.20
35607;DHT22;21729;58.392;15.656;2023-06-10T08:22:33;27.30;1.00
35607;DHT22;21729;58.392;15.656;2023-06-10T08:25:00;27.20;1.00
35607;DHT22;21729;58.392;15.656;2023-06-10T08:27:28;26.50;1.00
35607;DHT22;21729;58.392;15.656;2023-06-10T08:29:57;27.10;1.00
35607;DHT22;21729;58.392;15.656;2023-06-10T08:32:26;26.70;11.70
35607;DHT22;21729;58.392;15.656;2023-06-10T08:34:53;27.10;14.30
35607;DHT22;21729;58.392;15.656;2023-06-10T08:37:20;28.20;1.00
35607;DHT22;21729;58.392;15.656;2023-06-10T08:39:47;28.40;1.00
35607;DHT22;21729;58.392;15.656;2023-06-10T08:42:20;29.00;1.00
35607;DHT22;21729;58.392;15.656;2023-06-10T08:44:52;26.70;23.20
35607;DHT22;21729;58.392;15.656;2023-06-10T08:47:23;28.10;1.00
35607;DHT22;21729;58.392;15.656;2023-06-10T08:49:51;27.30;1.00
35607;DHT22;21729;58.392;15.656;2023-06-10T08:52:20;27.20;1.00
35607;DHT22;21729;58.392;15.656;2023-06-10T08:54:52;28.20;1.00
35607;DHT22;21729;58.392;15.656;2023-06-10T08:57:21;27.80;1.00
35607;DHT22;21729;58.392;15.656;2023-06-10T08:59:49;28.80;1.00
35607;DHT22;21729;58.392;15.656;2023-06-10T09:02:16;27.80;1.00
35607;DHT22;21729;58.392;15.656;2023-06-10T09:04:47;26.80;1.00
35607;DHT22;21729;58.392;15.656;2023-06-10T09:07:15;27.30;1.00
35607;DHT22;21729;58.392;15.656;2023-06-10T09:09:43;27.10;1.00
35607;DHT22;21729;58.392;15.656;2023-06-10T09:12:10;27.80;1.00
35607;DHT22;21729;58.392;15.656;2023-06-10T09:14:38;26.90;1.00
35607;DHT22;21729;58.392;15.656;2023-06-10T09:17:06;27.90;1.00
35607;DHT22;21729;58.392;15.656;2023-06-10T09:19:33;27.20;1.00
35607;DHT22;21729;58.392;15.656;2023-06-10T09:22:04;27.10;1.00
35607;DHT22;21729;58.392;15.656;2023-06-10T09:24:31;27.30;1.00
35607;DHT22;21729;58.392;15.656;2023-06-10T09:27:05;28.20;1.00
35607;DHT22;21729;58.392;15.656;2023-06-10T09:29:45;27.80;1.00
35607;DHT22;21729;58.392;15.656;2023-06-10T09:32:13;27.70;1.00
35607;DHT22;21729;58.392;15.656;2023-06-10T09:34:40;27.20;1.00
35607;DHT22;21729;58.392;15.656;2023-06-10T09:37:09;28.30;1.00
35607;DHT22;21729;58.392;15.656;2023-06-10T09:39:39;27.30;1.00
35607;DHT22;21729;58.392;15.656;2023-06-10T09:42:16;27.30;1.00
35607;DHT22;21729;58.392;15.656;2023-06-10T09:44:49;27.70;1.00
35607;DHT22;21729;58.392;15.656;2023-06-10T09:47:20;27.50;1.00
35607;DHT22;21729;58.392;15.656;2023-06-10T09:49:48;26.60;1.00
35607;DHT22;21729;58.392;15.656;2023-06-10T09:52:21;27.40;1.00
35607;DHT22;21729;58.392;15.656;2023-06-10T09:54:49;26.80;1.00
35607;DHT22;21729;58.392;15.656;2023-06-10T09:57:17;24.60;1.00
35607;DHT22;21729;58.392;15.656;2023-06-10T09:59:45;23.50;1.00
35607;DHT22;21729;58.392;15.656;2023-06-10T10:02:16;23.30;1.00
35607;DHT22;21729;58.392;15.656;2023-06-10T10:04:43;22.80;1.00
35607;DHT22;21729;58.392;15.656;2023-06-10T10:07:11;23.10;1.00
35607;DHT22;21729;58.392;15.656;2023-06-10T10:09:41;23.70;1.00
35607;DHT22;21729;58.392;15.656;2023-06-10T10:12:10;23.90;1.00
35607;DHT22;21729;58.392;15.656;2023-06-10T10:14:38;23.10;1.00
35607;DHT22;21729;58.392;15.656;2023-06-10T10:17:10;23.10;1.00
35607;DHT22;21729;58.392;15.656;2023-06-10T10:19:43;23.00;1.00
35607;DHT22;21729;58.392;15.656;2023-06-10T10:22:20;23.00;1.00
35607;DHT22;21729;58.392;15.656;2023-06-10T10:24:56;23.40;1.00
35607;DHT22;21729;58.392;15.656;2023-06-10T10:27:27;23.10;1.00
35607;DHT22;21729;58.392;15.656;2023-06-10T10:29:55;22.80;1.00
35607;DHT22;21729;58.392;15.656;2023-06-10T10:32:32;22.80;1.00
35607;DHT22;21729;58.392;15.656;2023-06-10T10:35:08;22.10;1.00
35607;DHT22;21729;58.392;15.656;2023-06-10T10:37:35;21.80;1.00
35607;DHT22;21729;58.392;15.656;2023-06-10T10:40:06;22.30;1.00
35607;DHT22;21729;58.392;15.656;2023-06-10T10:42:34;21.90;1.00
35607;DHT22;21729;58.392;15.656;2023-06-10T10:45:02;22.00;1.00
35607;DHT22;21729;58.392;15.656;2023-06-10T10:47:31;21.80;1.00
35607;DHT22;21729;58.392;15.656;2023-06-10T10:49:59;21.20;1.00
35607;DHT22;21729;58.392;15.656;2023-06-10T10:52:48;21.30;1.00
35607;DHT22;21729;58.392;15.656;2023-06-10T10:55:19;21.50;1.00
35607;DHT22;21729;58.392;15.656;2023-06-10T10:57:53;21.20;1.00
35607;DHT22;21729;58.392;15.656;2023-06-10T11:00:31;21.90;1.00
35607;DHT22;21729;58.392;15.656;2023-06-10T11:03:03;21.40;1.00
35607;DHT22;21729;58.392;15.656;2023-06-10T11:05:35;21.70;1.00
35607;DHT22;21729;58.392;15.656;2023-06-10T11:08:02;21.70;1.00
35607;DHT22;21729;58.392;15.656;2023-06-10T11:10:33;21.50;2.40
35607;DHT22;21729;58.392;15.656;2023-06-10T11:13:00;21.00;3.60
35607;DHT22;21729;58.392;15.656;2023-06-10T11:15:29;21.60;13.80
35607;DHT22;21729;58.392;15.656;2023-06-10T11:18:23;21.50;3.80
35607;DHT22;21729;58.392;15.656;2023-06-10T11:20:52;21.60;1.00
35607;DHT22;21729;58.392;15.656;2023-06-10T11:23:40;21.60;1.00
35607;DHT22;21729;58.392;15.656;2023-06-10T11:26:18;21.30;5.50
35607;DHT22;21729;58.392;15.656;2023-06-10T11:29:08;20.90;14.40
35607;DHT22;21729;58.392;15.656;2023-06-10T11:31:43;20.90;14.30
35607;DHT22;21729;58.392;15.656;2023-06-10T11:34:11;20.70;17.40
35607;DHT22;21729;58.392;15.656;2023-06-10T11:36:40;20.80;23.90
35607;DHT22;21729;58.392;15.656;2023-06-10T11:39:09;20.70;28.10
35607;DHT22;21729;58.392;15.656;2023-06-10T11:41:38;21.10;26.80
35607;DHT22;21729;58.392;15.656;2023-06-10T11:44:08;20.80;34.40
35607;DHT22;21729;58.392;15.656;2023-06-10T11:46:36;20.90;23.20
35607;DHT22;21729;58.392;15.656;2023-06-10T11:49:04;20.80;23.20
35607;DHT22;21729;58.392;15.656;2023-06-10T11:51:33;20.60;20.10
35607;DHT22;21729;58.392;15.656;2023-06-10T11:54:01;20.60;35.10
35607;DHT22;21729;58.392;15.656;2023-06-10T11:56:30;20.60;24.70
35607;DHT22;21729;58.392;15.656;2023-06-10T11:59:00;20.80;43.20
35607;DHT22;21729;58.392;15.656;2023-06-10T12:01:30;20.80;21.10
35607;DHT22;21729;58.392;15.656;2023-06-10T12:03:59;20.40;27.10
35607;DHT22;21729;58.392;15.656;2023-06-10T12:06:27;20.60;33.90
35607;DHT22;21729;58.392;15.656;2023-06-10T12:08:54;20.70;16.10
35607;DHT22;21729;58.392;15.656;2023-06-10T12:11:22;20.60;21.80
35607;DHT22;21729;58.392;15.656;2023-06-10T12:13:51;20.50;7.20
35607;DHT22;21729;58.392;15.656;2023-06-10T12:16:20;20.50;2.40
35607;DHT22;21729;58.392;15.656;2023-06-10T12:18:47;20.60;1.00
35607;DHT22;21729;58.392;15.656;2023-06-10T12:21:16;20.20;1.80
35607;DHT22;21729;58.392;15.656;2023-06-10T12:24:02;20.30;10.80
35607;DHT22;21729;58.392;15.656;2023-06-10T12:26:37;20.20;5.10
35607;DHT22;21729;58.392;15.656;2023-06-10T12:29:21;20.40;9.10
35607;DHT22;21729;58.392;15.656;2023-06-10T12:31:58;20.60;1.00
35607;DHT22;21729;58.392;15.656;2023-06-10T12:34:34;20.50;8.30
35607;DHT22;21729;58.392;15.656;2023-06-10T12:37:02;20.40;7.80
35607;DHT22;21729;58.392;15.656;2023-06-10T12:39:31;20.50;5.00
35607;DHT22;21729;58.392;15.656;2023-06-10T12:41:58;20.50;15.50
35607;DHT22;21729;58.392;15.656;2023-06-10T12:44:30;20.50;1.00
35607;DHT22;21729;58.392;15.656;2023-06-10T12:46:59;20.30;9.60
35607;DHT22;21729;58.392;15.656;2023-06-10T12:49:26;20.30;7.60
35607;DHT22;21729;58.392;15.656;2023-06-10T12:51:53;20.40;15.60
35607;DHT22;21729;58.392;15.656;2023-06-10T12:54:21;20.20;10.30
35607;DHT22;21729;58.392;15.656;2023-06-10T12:56:49;20.20;1.00
35607;DHT22;21729;58.392;15.656;2023-06-10T12:59:16;20.30;4.20
35607;DHT22;21729;58.392;15.656;2023-06-10T13:01:43;20.00;5.80
35607;DHT22;21729;58.392;15.656;2023-06-10T13:04:12;19.70;2.20
35607;DHT22;21729;58.392;15.656;2023-06-10T13:06:39;19.80;11.00
35607;DHT22;21729;58.392;15.656;2023-06-10T13:09:06;19.70;7.10
35607;DHT22;21729;58.392;15.656;2023-06-10T13:11:34;19.70;4.30
35607;DHT22;21729;58.392;15.656;2023-06-10T13:14:02;20.10;7.60
35607;DHT22;21729;58.392;15.656;2023-06-10T13:16:30;19.80;6.00
35607;DHT22;21729;58.392;15.656;2023-06-10T13:18:58;19.80;5.50
35607;DHT22;21729;58.392;15.656;2023-06-10T13:21:28;20.10;8.80
35607;DHT22;21729;58.392;15.656;2023-06-10T13:23:55;19.70;3.70
35607;DHT22;21729;58.392;15.656;2023-06-10T13:26:22;19.80;1.00
35607;DHT22;21729;58.392;15.656;2023-06-10T13:28:49;19.70;1.00
35607;DHT22;21729;58.392;15.656;2023-06-10T13:31:16;19.80;1.00
35607;DHT22;21729;58.392;15.656;2023-06-10T13:33:43;19.70;1.00
35607;DHT22;21729;58.392;15.656;2023-06-10T13:36:10;19.80;1.00
35607;DHT22;21729;58.392;15.656;2023-06-10T13:38:39;19.60;1.00
35607;DHT22;21729;58.392;15.656;2023-06-10T13:41:06;19.70;1.00
35607;DHT22;21729;58.392;15.656;2023-06-10T13:43:33;19.60;1.00
35607;DHT22;21729;58.392;15.656;2023-06-10T13:46:00;19.80;1.00
35607;DHT22;21729;58.392;15.656;2023-06-10T13:48:27;19.90;1.00
35607;DHT22;21729;58.392;15.656;2023-06-10T13:50:54;19.70;1.00
35607;DHT22;21729;58.392;15.656;2023-06-10T13:53:22;19.60;1.00
35607;DHT22;21729;58.392;15.656;2023-06-10T13:55:50;19.50;1.00
35607;DHT22;21729;58.392;15.656;2023-06-10T13:58:17;19.50;1.00
35607;DHT22;21729;58.392;15.656;2023-06-10T14:00:45;19.40;1.00
35607;DHT22;21729;58.392;15.656;2023-06-10T14:03:13;19.50;1.00
35607;DHT22;21729;58.392;15.656;2023-06-10T14:05:40;19.70;1.00
35607;DHT22;21729;58.392;15.656;2023-06-10T14:08:07;19.80;1.00
35607;DHT22;21729;58.392;15.656;2023-06-10T14:10:34;19.60;1.00
35607;DHT22;21729;58.392;15.656;2023-06-10T14:13:03;19.40;1.00
35607;DHT22;21729;58.392;15.656;2023-06-10T14:15:30;19.50;1.00
35607;DHT22;21729;58.392;15.656;2023-06-10T14:17:58;19.50;2.30
35607;DHT22;21729;58.392;15.656;2023-06-10T14:20:25;19.40;5.40
35607;DHT22;21729;58.392;15.656;2023-06-10T14:22:57;19.40;10.30
35607;DHT22;21729;58.392;15.656;2023-06-10T14:25:24;19.40;8.20
35607;DHT22;21729;58.392;15.656;2023-06-10T14:27:51;19.30;8.40
35607;DHT22;21729;58.392;15.656;2023-06-10T14:30:20;19.40;16.60
35607;DHT22;21729;58.392;15.656;2023-06-10T14:32:47;19.30;10.90
35607;DHT22;21729;58.392;15.656;2023-06-10T14:35:14;19.00;11.50
35607;DHT22;21729;58.392;15.656;2023-06-10T14:37:41;18.90;10.60
35607;DHT22;21729;58.392;15.656;2023-06-10T14:40:09;18.90;29.60
35607;DHT22;21729;58.392;15.656;2023-06-10T14:42:36;18.70;16.90
35607;DHT22;21729;58.392;15.656;2023-06-10T14:45:04;18.90;33.00
35607;DHT22;21729;58.392;15.656;2023-06-10T14:47:33;18.80;29.80
35607;DHT22;21729;58.392;15.656;2023-06-10T14:50:00;18.60;32.90
35607;DHT22;21729;58.392;15.656;2023-06-10T14:52:27;18.50;30.80
35607;DHT22;21729;58.392;15.656;2023-06-10T14:54:54;18.50;34.50
35607;DHT22;21729;58.392;15.656;2023-06-10T14:57:21;18.30;38.20
35607;DHT22;21729;58.392;15.656;2023-06-10T14:59:48;18.40;34.80
35607;DHT22;21729;58.392;15.656;2023-06-10T15:02:16;18.30;40.50
35607;DHT22;21729;58.392;15.656;2023-06-10T15:04:44;18.20;50.30
35607;DHT22;21729;58.392;15.656;2023-06-10T15:07:11;18.20;41.60
35607;DHT22;21729;58.392;15.656;2023-06-10T15:09:41;18.20;42.10
35607;DHT22;21729;58.392;15.656;2023-06-10T15:12:08;18.30;45.40
35607;DHT22;21729;58.392;15.656;2023-06-10T15:14:36;18.20;45.10
35607;DHT22;21729;58.392;15.656;2023-06-10T15:17:03;18.10;47.50
35607;DHT22;21729;58.392;15.656;2023-06-10T15:19:31;18.10;66.60
35607;DHT22;21729;58.392;15.656;2023-06-10T15:21:59;18.20;54.80
35607;DHT22;21729;58.392;15.656;2023-06-10T15:24:26;18.10;56.00
35607;DHT22;21729;58.392;15.656;2023-06-10T15:26:53;18.20;49.20
35607;DHT22;21729;58.392;15.656;2023-06-10T15:29:21;18.10;56.30
35607;DHT22;21729;58.392;15.656;2023-06-10T15:31:48;18.20;60.80
35607;DHT22;21729;58.392;15.656;2023-06-10T15:34:15;18.00;52.30
35607;DHT22;21729;58.392;15.656;2023-06-10T15:36:42;18.00;62.00